Time;durP1;ratioP1;P1;durP2;ratioP2;P2;SDS_P1;SDS_P2;PMS_P1;PMS_P2;Temp;Humidity;BMP_temperature;BMP_pressure;BME280_temperature;BME280_humidity;BME280_pressure;Samples;Min_cycle;Max_cycle;Signal;HPM_P1;HPM_P2
2023/07/31 00:03:59;;;;;;;6.00;2.10;;;;;;;17.02;68.05;100702.50;15425063;28;20000;-51
2023/07/31 00:11:33;;;;;;;5.97;2.10;;;;;;;16.72;68.77;100703.78;15448551;28;20077;-48
2023/07/31 00:19:06;;;;;;;4.57;1.88;;;;;;;16.71;68.36;100693.16;15467413;28;20045;-50
2023/07/31 00:26:41;;;;;;;6.25;2.50;;;;;;;17.03;67.40;100677.84;15483714;28;20169;-53
2023/07/31 00:34:14;;;;;;;5.82;2.40;;;;;;;17.33;66.47;100665.66;15478607;28;20539;-50
2023/07/31 00:41:48;;;;;;;6.43;2.38;;;;;;;17.17;66.99;100680.97;15455996;28;20046;-53
2023/07/31 00:49:22;;;;;;;5.93;2.30;;;;;;;16.58;69.52;100678.09;15483499;28;20436;-50
2023/07/31 00:56:57;;;;;;;7.30;2.92;;;;;;;16.17;71.24;100655.84;15464404;28;20047;-48
2023/07/31 01:04:30;;;;;;;8.10;3.20;;;;;;;16.22;71.82;100647.81;15417266;28;20043;-52
2023/07/31 01:12:08;;;;;;;6.72;2.92;;;;;;;16.08;71.68;100631.09;15453400;28;20141;-52
2023/07/31 01:19:46;;;;;;;6.35;3.33;;;;;;;16.82;70.17;100628.00;15492194;28;20144;-51
2023/07/31 01:27:25;;;;;;;6.90;3.10;;;;;;;16.58;69.99;100627.41;15491053;28;20644;-50
2023/07/31 01:35:01;;;;;;;8.93;3.55;;;;;;;16.68;69.66;100632.13;15491820;28;20050;-49
2023/07/31 01:42:36;;;;;;;7.32;3.45;;;;;;;16.71;70.48;100628.13;15474103;28;20125;-50
2023/07/31 01:50:10;;;;;;;7.53;3.80;;;;;;;16.92;70.82;100612.91;15456994;28;20487;-49
2023/07/31 01:57:45;;;;;;;7.78;3.42;;;;;;;16.96;69.85;100603.19;15473719;28;20052;-49
2023/07/31 02:05:17;;;;;;;6.47;3.58;;;;;;;17.18;68.37;100611.28;15489035;28;20034;-52
2023/07/31 02:12:52;;;;;;;8.32;3.40;;;;;;;16.90;68.80;100599.63;15456109;28;20050;-49
2023/07/31 02:20:25;;;;;;;8.82;3.42;;;;;;;16.88;69.51;100600.94;15489730;28;20098;-50
2023/07/31 02:27:59;;;;;;;;;;;;;;;17.04;69.13;100583.75;15471604;28;20162;-51
2023/07/31 02:35:32;;;;;;;11.90;3.53;;;;;;;16.43;70.71;100578.47;15471656;28;20247;-49
2023/07/31 02:43:06;;;;;;;5.45;3.47;;;;;;;16.32;71.74;100580.25;15467195;28;20372;-56
2023/07/31 02:50:39;;;;;;;5.72;3.92;;;;;;;16.49;71.45;100576.63;15425831;28;20050;-56
2023/07/31 02:58:14;;;;;;;6.60;3.88;;;;;;;16.39;72.25;100576.53;15450114;28;20428;-50
2023/07/31 03:05:47;;;;;;;6.57;4.68;;;;;;;16.35;73.29;100576.19;15470347;28;20046;-49
2023/07/31 03:13:21;;;;;;;7.60;4.90;;;;;;;16.42;73.25;100571.41;15465910;28;20042;-51
2023/07/31 03:20:54;;;;;;;7.10;4.78;;;;;;;16.70;72.32;100564.97;15453625;28;20504;-53
2023/07/31 03:28:28;;;;;;;9.10;4.53;;;;;;;16.23;73.16;100560.09;15468026;28;20090;-50
2023/07/31 03:36:01;;;;;;;8.02;4.88;;;;;;;16.33;73.13;100557.50;15443564;28;20062;-53
2023/07/31 03:43:36;;;;;;;10.00;4.80;;;;;;;16.34;73.56;100550.19;15468638;28;20058;-47
2023/07/31 03:51:10;;;;;;;7.18;4.00;;;;;;;16.81;71.28;100536.09;15439272;28;20432;-49
2023/07/31 03:58:45;;;;;;;8.35;4.57;;;;;;;16.53;72.16;100535.22;15479998;28;20388;-52
2023/07/31 04:06:18;;;;;;;9.23;4.50;;;;;;;16.54;72.31;100533.34;15468134;28;20050;-52
2023/07/31 04:13:52;;;;;;;10.98;4.90;;;;;;;16.78;72.78;100531.97;15479162;28;20046;-51
2023/07/31 04:21:26;;;;;;;11.73;5.15;;;;;;;16.89;72.21;100524.78;15479805;28;20519;-51
2023/07/31 04:29:00;;;;;;;9.93;4.57;;;;;;;16.73;72.76;100517.56;15479455;28;20073;-49
2023/07/31 04:36:34;;;;;;;9.13;4.03;;;;;;;16.75;72.56;100507.31;15497575;28;20049;-49
2023/07/31 04:44:11;;;;;;;9.38;4.38;;;;;;;16.45;73.84;100508.59;15479769;28;20090;-50
2023/07/31 04:51:43;;;;;;;11.88;4.20;;;;;;;16.29;74.85;100504.91;15496009;28;20070;-49
2023/07/31 04:59:18;;;;;;;7.93;4.07;;;;;;;16.40;74.47;100505.81;15495103;28;20050;-50
2023/07/31 05:06:51;;;;;;;8.02;3.63;;;;;;;16.25;75.19;100498.34;15477963;28;20476;-50
2023/07/31 05:14:25;;;;;;;9.13;2.95;;;;;;;16.54;73.85;100498.13;15460757;28;20496;-49
2023/07/31 05:21:58;;;;;;;8.48;3.30;;;;;;;16.40;73.79;100486.03;15417096;28;20042;-50
2023/07/31 05:29:33;;;;;;;6.05;3.10;;;;;;;16.76;73.11;100496.19;15559577;23;20137;-47
2023/07/31 05:37:06;;;;;;;10.20;3.80;;;;;;;16.51;74.39;100493.22;15621753;28;20481;-49
2023/07/31 05:44:41;;;;;;;9.93;3.83;;;;;;;16.62;74.44;100491.44;15621466;28;20044;-48
2023/07/31 05:52:13;;;;;;;9.57;3.50;;;;;;;16.68;74.97;100495.81;15620739;28;20041;-46
2023/07/31 05:59:48;;;;;;;5.95;3.22;;;;;;;16.92;74.27;100485.47;15622825;28;20105;-54
2023/07/31 06:07:21;;;;;;;7.03;3.40;;;;;;;16.63;75.82;100485.75;15620695;28;20133;-48
2023/07/31 06:14:55;;;;;;;7.05;2.90;;;;;;;16.68;75.44;100477.66;15596516;28;20038;-47
2023/07/31 06:22:28;;;;;;;6.38;3.42;;;;;;;16.67;76.56;100481.44;15608287;28;20037;-47
2023/07/31 06:30:04;;;;;;;6.05;2.85;;;;;;;16.55;75.78;100478.91;15616098;28;20139;-46
2023/07/31 06:37:40;;;;;;;7.20;2.78;;;;;;;16.90;74.81;100472.19;15617404;28;20046;-50
2023/07/31 06:45:19;;;;;;;8.55;2.78;;;;;;;16.84;74.21;100467.81;15617075;28;20065;-47
2023/07/31 06:52:52;;;;;;;8.15;2.80;;;;;;;16.56;75.82;100474.31;15598659;28;20041;-46
2023/07/31 07:00:26;;;;;;;8.68;2.90;;;;;;;16.67;76.30;100477.91;15615694;28;20044;-52
2023/07/31 07:07:59;;;;;;;9.43;3.55;;;;;;;16.50;75.88;100475.31;15611526;28;20128;-52
2023/07/31 07:15:33;;;;;;;9.00;3.45;;;;;;;16.49;77.06;100479.91;15614493;28;20041;-50
2023/07/31 07:23:06;;;;;;;9.40;3.40;;;;;;;17.10;76.11;100479.66;15590406;28;20444;-50
2023/07/31 07:30:40;;;;;;;6.35;3.50;;;;;;;16.86;76.46;100483.81;15611156;28;20041;-51
2023/07/31 07:38:15;;;;;;;6.55;3.20;;;;;;;16.62;77.96;100481.41;15562634;28;20092;-49
2023/07/31 07:45:49;;;;;;;7.13;4.05;;;;;;;16.68;79.04;100469.53;15564978;28;20149;-47
2023/07/31 07:53:22;;;;;;;8.63;4.00;;;;;;;16.63;78.68;100476.78;15571279;28;20067;-47
2023/07/31 08:00:56;;;;;;;10.57;4.30;;;;;;;16.81;78.09;100461.00;15597449;28;20041;-51
2023/07/31 08:08:30;;;;;;;11.38;4.32;;;;;;;16.74;78.97;100462.28;15605676;28;20049;-46
2023/07/31 08:16:07;;;;;;;9.43;3.88;;;;;;;16.68;78.96;100453.25;15628984;28;20036;-55
2023/07/31 08:23:40;;;;;;;7.57;3.53;;;;;;;17.20;78.43;100443.66;15613187;28;20040;-51
2023/07/31 08:31:14;;;;;;;5.85;3.78;;;;;;;17.51;76.95;100439.25;15610437;28;20053;-51
2023/07/31 08:38:47;;;;;;;8.65;3.55;;;;;;;17.16;78.21;100445.25;15631228;28;20052;-52
2023/07/31 08:46:22;;;;;;;6.68;2.63;;;;;;;16.85;79.72;100441.53;15627030;28;20076;-48
2023/07/31 08:53:57;;;;;;;4.38;2.00;;;;;;;16.83;80.47;100447.19;15630689;28;20089;-55
2023/07/31 09:01:41;;;;;;;3.28;1.75;;;;;;;17.30;77.49;100441.84;15601010;28;20049;-48
2023/07/31 09:09:15;;;;;;;3.05;1.05;;;;;;;17.37;77.07;100448.94;15602676;28;20069;-51
2023/07/31 09:16:58;;;;;;;2.30;1.08;;;;;;;17.50;76.43;100443.03;15617894;28;20041;-52
2023/07/31 09:24:33;;;;;;;1.92;1.00;;;;;;;17.55;76.97;100435.72;15616724;28;20490;-47
2023/07/31 09:32:17;;;;;;;2.38;1.45;;;;;;;17.69;75.42;100418.97;15615577;28;20044;-49
2023/07/31 09:39:54;;;;;;;5.65;3.20;;;;;;;17.62;76.08;100434.66;15599610;28;20069;-50
2023/07/31 09:47:30;;;;;;;5.63;3.08;;;;;;;18.02;75.43;100423.19;15619500;28;20103;-56
2023/07/31 09:55:03;;;;;;;7.43;3.67;;;;;;;18.15;74.49;100419.16;15615302;28;20049;-51
2023/07/31 10:02:42;;;;;;;8.85;4.10;;;;;;;17.95;76.06;100412.59;15620268;28;20030;-53
2023/07/31 10:10:21;;;;;;;7.78;4.20;;;;;;;17.84;76.70;100406.28;15619384;28;20052;-51
2023/07/31 10:17:56;;;;;;;7.65;4.15;;;;;;;18.18;75.83;100408.53;15602446;28;20580;-51
2023/07/31 10:25:30;;;;;;;8.55;4.40;;;;;;;18.26;76.87;100397.16;15619040;28;20103;-50
2023/07/31 10:33:06;;;;;;;8.50;4.00;;;;;;;19.17;73.93;100390.09;15619056;28;20045;-52
2023/07/31 10:40:39;;;;;;;10.43;4.00;;;;;;;19.55;73.27;100382.34;15608198;28;20042;-48
2023/07/31 10:48:17;;;;;;;6.43;3.30;;;;;;;20.15;70.19;100353.19;15599140;28;20060;-48
2023/07/31 10:55:51;;;;;;;6.50;2.92;;;;;;;20.60;67.83;100337.56;15576955;28;20048;-53
2023/07/31 11:03:28;;;;;;;6.95;3.08;;;;;;;21.30;64.32;100350.75;15616157;28;20048;-46
2023/07/31 11:11:09;;;;;;;6.55;2.90;;;;;;;20.65;61.78;100348.41;15596631;28;20049;-49
2023/07/31 11:18:45;;;;;;;4.95;2.67;;;;;;;20.67;63.97;100346.25;15612470;28;20057;-47
2023/07/31 11:26:20;;;;;;;5.20;2.63;;;;;;;20.58;61.45;100345.22;15579441;23;20053;-59
2023/07/31 11:34:06;;;;;;;6.50;2.95;;;;;;;20.35;61.99;100341.28;15518284;28;20494;-59
2023/07/31 11:41:51;;;;;;;6.20;2.95;;;;;;;19.92;63.01;100338.34;15575995;28;20050;-59
2023/07/31 11:49:26;;;;;;;5.00;2.90;;;;;;;20.15;61.63;100345.00;15555807;28;20049;-58
2023/07/31 11:57:01;;;;;;;5.88;2.55;;;;;;;20.51;60.82;100329.19;15582757;28;20068;-59
2023/07/31 12:04:36;;;;;;;6.22;2.70;;;;;;;20.73;60.08;100325.19;15579439;28;20061;-60
2023/07/31 12:12:21;;;;;;;6.80;3.13;;;;;;;20.80;60.63;100322.94;15565393;28;20527;-60
2023/07/31 12:19:56;;;;;;;4.93;2.35;;;;;;;20.49;61.43;100315.03;15587861;28;20033;-60
2023/07/31 12:27:34;;;;;;;6.93;2.60;;;;;;;20.19;62.52;100331.59;15559493;28;20138;-59
2023/07/31 12:35:09;;;;;;;6.82;2.00;;;;;;;20.37;62.01;100314.56;15542276;28;20069;-59
2023/07/31 12:42:42;;;;;;;3.92;1.90;;;;;;;20.56;61.81;100291.00;15571054;28;20124;-58
2023/07/31 12:50:17;;;;;;;3.05;2.00;;;;;;;21.00;60.02;100281.78;15577766;28;20045;-58
2023/07/31 12:57:51;;;;;;;3.58;2.10;;;;;;;20.92;61.13;100271.50;15581398;28;20041;-59
2023/07/31 13:05:25;;;;;;;6.32;2.20;;;;;;;20.52;61.08;100278.22;15587437;28;20049;-59
2023/07/31 13:13:00;;;;;;;7.53;2.53;;;;;;;20.85;60.15;100268.31;15578009;28;20042;-59
2023/07/31 13:20:34;;;;;;;10.25;2.70;;;;;;;20.99;60.16;100260.25;15582054;28;20652;-59
2023/07/31 13:28:08;;;;;;;8.85;3.05;;;;;;;21.12;59.36;100254.06;15595597;28;20421;-57
2023/07/31 13:35:42;;;;;;;10.55;2.78;;;;;;;21.23;59.16;100241.09;15584583;28;20038;-59
2023/07/31 13:43:15;;;;;;;5.35;2.92;;;;;;;21.45;58.22;100226.91;15584814;28;20049;-58
2023/07/31 13:50:49;;;;;;;6.38;2.90;;;;;;;21.96;58.21;100224.19;15579482;28;20465;-59
2023/07/31 13:58:23;;;;;;;4.20;2.50;;;;;;;21.67;57.83;100215.38;15574421;28;20046;-58
2023/07/31 14:05:57;;;;;;;6.68;2.60;;;;;;;21.22;58.35;100199.34;15586033;28;20046;-58
2023/07/31 14:13:31;;;;;;;8.77;3.05;;;;;;;21.31;59.28;100205.81;15560969;28;20585;-58
2023/07/31 14:21:05;;;;;;;7.05;2.85;;;;;;;21.57;58.06;100197.22;15584463;28;20049;-58
2023/07/31 14:28:38;;;;;;;5.50;2.58;;;;;;;21.53;55.73;100196.19;15568456;28;20470;-58
2023/07/31 14:36:13;;;;;;;4.15;2.67;;;;;;;21.71;56.21;100184.44;15548796;28;20046;-58
2023/07/31 14:43:46;;;;;;;3.95;2.72;;;;;;;21.65;56.45;100189.19;15585042;28;20034;-60
2023/07/31 14:51:21;;;;;;;5.63;2.40;;;;;;;21.27;57.93;100182.91;15565748;28;20056;-58
2023/07/31 14:58:55;;;;;;;4.47;2.63;;;;;;;20.91;58.08;100174.38;15547978;28;20451;-57
2023/07/31 15:06:30;;;;;;;5.03;2.63;;;;;;;21.09;57.30;100175.53;15587370;28;20049;-57
2023/07/31 15:14:03;;;;;;;5.60;3.25;;;;;;;21.00;60.38;100169.09;15579458;28;20072;-59
2023/07/31 15:21:38;;;;;;;5.22;2.63;;;;;;;21.73;58.84;100149.47;15580263;28;20132;-59
2023/07/31 15:29:18;;;;;;;5.45;2.83;;;;;;;21.88;57.78;100132.00;15580858;28;20141;-59
2023/07/31 15:36:53;;;;;;;6.03;2.85;;;;;;;21.98;57.81;100112.66;15571847;28;20046;-59
2023/07/31 15:44:26;;;;;;;5.63;2.97;;;;;;;21.76;57.45;100104.31;15554358;28;20046;-58
2023/07/31 15:52:00;;;;;;;7.78;3.05;;;;;;;21.61;56.49;100106.22;15554392;28;20041;-60
2023/07/31 15:59:34;;;;;;;7.00;2.88;;;;;;;21.35;57.09;100107.72;15537515;28;20109;-59
2023/07/31 16:07:08;;;;;;;6.85;3.25;;;;;;;21.29;57.44;100111.63;15593255;28;20403;-59
2023/07/31 16:14:41;;;;;;;5.03;2.50;;;;;;;20.94;58.19;100124.69;15589813;28;20109;-58
2023/07/31 16:22:19;;;;;;;4.90;2.63;;;;;;;20.86;58.16;100133.53;15564433;28;20072;-58
2023/07/31 16:29:52;;;;;;;4.63;2.42;;;;;;;20.96;58.25;100146.22;15546897;28;20053;-59
2023/07/31 16:37:26;;;;;;;5.43;2.40;;;;;;;21.26;57.09;100128.59;15564316;28;20527;-58
2023/07/31 16:45:00;;;;;;;3.80;2.20;;;;;;;21.31;57.19;100107.53;15547294;28;20073;-58
2023/07/31 16:52:35;;;;;;;5.78;2.60;;;;;;;21.33;57.02;100099.03;15563528;28;20427;-56
2023/07/31 17:00:09;;;;;;;5.97;2.05;;;;;;;21.24;57.13;100096.13;15545634;28;20046;-59
2023/07/31 17:07:44;;;;;;;3.85;1.90;;;;;;;21.04;57.90;100094.53;15562835;28;20042;-59
2023/07/31 17:15:16;;;;;;;3.88;1.90;;;;;;;21.23;58.08;100104.63;15560951;28;20046;-59
2023/07/31 17:22:51;;;;;;;7.32;1.85;;;;;;;20.78;58.82;100115.91;15561715;28;20057;-58
2023/07/31 17:30:24;;;;;;;3.28;1.60;;;;;;;20.13;60.53;100112.84;15519897;23;20074;-54
2023/07/31 17:37:59;;;;;;;3.72;1.88;;;;;;;20.57;59.03;100107.19;15494944;28;20250;-58
2023/07/31 17:45:34;;;;;;;3.92;1.52;;;;;;;21.17;58.11;100097.59;15494428;28;20530;-59
2023/07/31 17:53:08;;;;;;;3.25;1.80;;;;;;;20.99;58.31;100100.06;15503965;28;20054;-58
2023/07/31 18:00:42;;;;;;;3.65;1.88;;;;;;;20.83;58.87;100110.38;15553268;28;20108;-59
2023/07/31 18:08:16;;;;;;;4.63;2.10;;;;;;;20.53;59.58;100097.16;15551729;28;20060;-58
2023/07/31 18:15:49;;;;;;;4.00;2.08;;;;;;;20.62;59.69;100098.13;15551440;28;20585;-60
2023/07/31 18:23:24;;;;;;;4.38;1.90;;;;;;;20.45;60.56;100095.84;15551846;28;20116;-59
2023/07/31 18:30:58;;;;;;;4.55;2.47;;;;;;;20.66;59.80;100082.81;15549996;28;20125;-57
2023/07/31 18:38:32;;;;;;;3.58;2.17;;;;;;;20.57;60.41;100079.91;15551678;28;20038;-59
2023/07/31 18:46:05;;;;;;;5.13;2.30;;;;;;;20.66;59.82;100079.25;15550831;28;20103;-61
2023/07/31 18:53:41;;;;;;;5.30;2.30;;;;;;;20.60;60.38;100073.88;15532511;28;20038;-56
2023/07/31 19:01:13;;;;;;;5.00;2.38;;;;;;;20.58;60.42;100080.72;15550441;28;20340;-57
2023/07/31 19:08:48;;;;;;;5.30;2.90;;;;;;;20.30;61.63;100082.41;15531190;28;20046;-58
2023/07/31 19:16:23;;;;;;;5.18;2.67;;;;;;;20.20;62.52;100085.25;15547535;28;20061;-57
2023/07/31 19:23:57;;;;;;;5.68;2.50;;;;;;;19.76;63.73;100084.34;15550117;28;20554;-58
2023/07/31 19:31:30;;;;;;;5.55;2.80;;;;;;;19.96;63.28;100068.88;15529957;28;20050;-58
2023/07/31 19:39:06;;;;;;;6.05;3.00;;;;;;;19.82;63.44;100052.44;15547921;28;20469;-55
2023/07/31 19:46:39;;;;;;;9.18;3.25;;;;;;;20.08;62.75;100033.88;15547523;28;20103;-53
2023/07/31 19:54:13;;;;;;;6.30;3.20;;;;;;;20.01;63.49;100031.53;15546358;28;20774;-55
2023/07/31 20:01:46;;;;;;;6.25;3.10;;;;;;;20.22;62.77;100025.81;15547161;28;20581;-57
2023/07/31 20:09:21;;;;;;;8.90;3.22;;;;;;;20.13;63.14;100015.56;15529644;28;20348;-56
2023/07/31 20:16:54;;;;;;;6.75;2.92;;;;;;;20.04;63.57;100016.50;15547894;28;20038;-52
2023/07/31 20:24:28;;;;;;;6.68;3.25;;;;;;;20.41;63.04;100002.13;15548368;28;20042;-56
2023/07/31 20:32:01;;;;;;;7.45;3.20;;;;;;;20.05;63.48;99997.16;15545883;28;20058;-56
2023/07/31 20:39:36;;;;;;;6.80;3.80;;;;;;;19.84;64.79;99984.88;15528107;28;20137;-55
2023/07/31 20:47:08;;;;;;;9.38;3.55;;;;;;;20.01;64.20;99978.94;15537580;28;20042;-56
2023/07/31 20:54:43;;;;;;;8.43;3.80;;;;;;;19.68;65.25;99958.91;15548487;28;20120;-56
2023/07/31 21:02:16;;;;;;;9.10;3.53;;;;;;;19.60;65.55;99960.34;15555919;28;20384;-58
2023/07/31 21:09:50;;;;;;;8.55;3.70;;;;;;;19.31;66.89;99941.31;15557151;28;20045;-57
2023/07/31 21:17:23;;;;;;;9.77;3.90;;;;;;;19.44;66.33;99929.72;15554768;28;20085;-55
2023/07/31 21:24:58;;;;;;;9.80;3.47;;;;;;;19.59;65.87;99920.59;15554030;28;20030;-57
2023/07/31 21:32:30;;;;;;;6.55;3.78;;;;;;;19.58;66.21;99908.06;15553011;28;20057;-58
2023/07/31 21:40:06;;;;;;;8.23;4.10;;;;;;;19.57;65.99;99906.44;15534877;28;20073;-57
2023/07/31 21:47:39;;;;;;;9.80;4.13;;;;;;;19.27;66.89;99877.69;15553216;28;20521;-54
2023/07/31 21:55:13;;;;;;;7.35;3.65;;;;;;;19.44;66.21;99874.47;15524349;28;20119;-57
2023/07/31 22:02:46;;;;;;;5.32;3.70;;;;;;;19.33;66.44;99868.34;15551934;28;20061;-57
2023/07/31 22:10:21;;;;;;;9.98;3.97;;;;;;;19.43;65.79;99862.78;15534311;28;20073;-54
2023/07/31 22:17:54;;;;;;;9.98;3.72;;;;;;;19.56;65.24;99844.94;15551462;28;20081;-56
2023/07/31 22:25:29;;;;;;;8.18;3.90;;;;;;;19.64;65.08;99833.44;15550517;28;20076;-55
2023/07/31 22:33:02;;;;;;;7.97;3.67;;;;;;;19.48;64.83;99821.91;15516559;28;20050;-58
2023/07/31 22:40:39;;;;;;;7.47;3.83;;;;;;;19.53;64.09;99804.69;15549166;28;20042;-59
2023/07/31 22:48:12;;;;;;;9.20;4.20;;;;;;;19.58;64.00;99796.47;15549593;28;20077;-59
2023/07/31 22:55:46;;;;;;;;;;;;;;;19.54;63.78;99784.56;15549822;28;20127;-59
2023/07/31 23:03:19;;;;;;;6.80;3.80;;;;;;;19.09;65.02;99768.50;15526619;28;19933;-59
2023/07/31 23:10:55;;;;;;;7.03;3.95;;;;;;;19.38;64.17;99762.97;15529791;28;20054;-56
2023/07/31 23:18:28;;;;;;;9.98;4.20;;;;;;;19.13;66.04;99766.03;15530368;28;20042;-58
2023/07/31 23:26:03;;;;;;;8.27;4.22;;;;;;;19.16;66.40;99749.09;15530965;28;20415;-58
2023/07/31 23:33:35;;;;;;;9.10;4.30;;;;;;;18.82;68.52;99733.75;15547965;28;20056;-57
2023/07/31 23:41:10;;;;;;;8.25;4.28;;;;;;;18.87;68.91;99730.16;15531401;28;20056;-56
2023/07/31 23:48:44;;;;;;;8.52;4.53;;;;;;;18.36;71.25;99728.75;15547056;28;20046;-56
2023/07/31 23:56:19;;;;;;;8.50;4.20;;;;;;;18.35;71.76;99713.56;15509223;28;20046;-54
